createdAt,value
2023-10-13T00:00:44.431Z,16.54
2023-10-13T00:03:17.310Z,16.53
2023-10-13T00:05:46.915Z,16.52
2023-10-13T00:08:15.796Z,16.51
2023-10-13T00:10:44.499Z,16.53
2023-10-13T00:13:17.141Z,16.54
2023-10-13T00:15:58.227Z,16.54
2023-10-13T00:18:28.407Z,16.56
2023-10-13T00:20:58.565Z,16.56
2023-10-13T00:23:28.247Z,16.52
2023-10-13T00:26:00.166Z,16.52
2023-10-13T00:28:36.984Z,16.54
2023-10-13T00:31:11.928Z,16.55
2023-10-13T00:33:42.184Z,16.55
2023-10-13T00:36:18.514Z,16.55
2023-10-13T00:38:49.509Z,16.56
2023-10-13T00:41:19.201Z,16.57
2023-10-13T00:44:05.004Z,16.57
2023-10-13T00:46:35.624Z,16.57
2023-10-13T00:49:05.802Z,16.57
2023-10-13T00:51:36.202Z,16.55
2023-10-13T00:54:09.055Z,16.55
2023-10-13T00:56:42.198Z,16.55
2023-10-13T00:59:11.490Z,16.57
2023-10-13T01:01:42.282Z,16.58
2023-10-13T01:04:13.741Z,16.55
2023-10-13T01:06:43.293Z,16.54
2023-10-13T01:09:13.288Z,16.56
2023-10-13T01:11:44.290Z,16.56
2023-10-13T01:14:12.391Z,16.56
2023-10-13T01:16:45.278Z,16.57
2023-10-13T01:19:13.586Z,16.55
2023-10-13T01:21:42.913Z,16.57
2023-10-13T01:24:18.709Z,16.59
2023-10-13T01:26:52.399Z,16.56
2023-10-13T01:29:20.585Z,16.58
2023-10-13T01:31:49.303Z,16.56
2023-10-13T01:34:23.260Z,16.56
2023-10-13T01:36:53.168Z,16.56
2023-10-13T01:39:27.952Z,16.58
2023-10-13T01:41:57.397Z,16.58
2023-10-13T01:44:25.666Z,16.59
2023-10-13T01:46:53.752Z,16.61
2023-10-13T01:49:23.498Z,16.60
2023-10-13T01:51:51.608Z,16.62
2023-10-13T01:54:18.830Z,16.63
2023-10-13T01:56:50.042Z,16.62
2023-10-13T01:59:19.517Z,16.64
2023-10-13T02:01:47.798Z,16.64
2023-10-13T02:04:15.367Z,16.62
2023-10-13T02:06:44.508Z,16.59
2023-10-13T02:09:14.006Z,16.55
2023-10-13T02:11:43.304Z,16.57
2023-10-13T02:14:12.326Z,16.55
2023-10-13T02:16:41.330Z,16.50
2023-10-13T02:19:09.833Z,16.49
2023-10-13T02:21:42.077Z,16.43
2023-10-13T02:24:14.657Z,16.39
2023-10-13T02:26:43.091Z,16.37
2023-10-13T02:29:14.131Z,16.33
2023-10-13T02:31:43.387Z,16.31
2023-10-13T02:34:10.724Z,16.27
2023-10-13T02:36:48.001Z,16.27
2023-10-13T02:39:17.237Z,16.25
2023-10-13T02:41:49.165Z,16.28
2023-10-13T02:44:27.902Z,16.25
2023-10-13T02:46:57.166Z,16.25
2023-10-13T02:49:27.318Z,16.25
2023-10-13T02:51:56.959Z,16.26
2023-10-13T02:54:31.321Z,16.24
2023-10-13T02:57:00.438Z,16.24
2023-10-13T02:59:35.604Z,16.25
2023-10-13T03:02:18.426Z,16.24
2023-10-13T03:04:46.405Z,16.23
2023-10-13T03:07:16.808Z,16.22
2023-10-13T03:09:51.757Z,16.22
2023-10-13T03:12:19.929Z,16.24
2023-10-13T03:14:49.008Z,16.24
2023-10-13T03:17:18.454Z,16.28
2023-10-13T03:19:51.270Z,16.28
2023-10-13T03:22:19.656Z,16.31
2023-10-13T03:24:48.257Z,16.35
2023-10-13T03:27:17.864Z,16.35
2023-10-13T03:29:49.243Z,16.34
2023-10-13T03:32:19.355Z,16.36
2023-10-13T03:35:07.939Z,16.38
2023-10-13T03:37:40.157Z,16.43
2023-10-13T03:40:30.488Z,16.43
2023-10-13T03:43:05.725Z,16.45
2023-10-13T03:45:38.854Z,16.44
2023-10-13T03:48:12.828Z,16.44
2023-10-13T03:50:48.435Z,16.45
2023-10-13T03:53:16.634Z,16.44
2023-10-13T03:55:49.306Z,16.43
2023-10-13T03:58:17.990Z,16.40
2023-10-13T04:00:46.449Z,16.44
2023-10-13T04:03:19.137Z,16.43
2023-10-13T04:06:01.889Z,16.43
2023-10-13T04:08:55.854Z,16.46
2023-10-13T04:11:41.384Z,16.48
2023-10-13T04:14:45.705Z,16.49
2023-10-13T04:17:15.146Z,16.51
2023-10-13T04:20:13.466Z,16.53
2023-10-13T04:22:56.557Z,16.53
2023-10-13T04:25:40.204Z,16.54
2023-10-13T04:28:35.108Z,16.57
2023-10-13T04:31:13.086Z,16.59
2023-10-13T04:33:52.529Z,16.58
2023-10-13T04:36:37.648Z,16.60
2023-10-13T04:39:11.169Z,16.66
2023-10-13T04:41:46.163Z,16.70
2023-10-13T04:44:49.057Z,16.78
2023-10-13T04:47:30.686Z,16.82
2023-10-13T04:50:01.806Z,16.80
2023-10-13T04:53:02.535Z,16.80
2023-10-13T04:56:00.884Z,16.79
2023-10-13T04:58:58.002Z,16.79
2023-10-13T05:01:40.117Z,16.83
2023-10-13T05:04:23.367Z,16.87
2023-10-13T05:07:09.134Z,16.92
2023-10-13T05:09:55.686Z,16.96
2023-10-13T05:12:41.419Z,16.98
2023-10-13T05:15:27.344Z,16.99
2023-10-13T05:18:12.688Z,16.89
2023-10-13T05:20:57.994Z,16.87
2023-10-13T05:23:43.576Z,16.85
2023-10-13T05:26:30.172Z,16.79
2023-10-13T05:29:28.906Z,16.76
2023-10-13T05:32:15.348Z,16.74
2023-10-13T05:35:00.911Z,16.77
2023-10-13T05:37:46.275Z,16.79
2023-10-13T05:40:32.362Z,16.83
2023-10-13T05:43:19.419Z,16.87
2023-10-13T05:46:19.393Z,16.89
2023-10-13T05:51:48.894Z,16.89
2023-10-13T05:54:34.179Z,16.92
2023-10-13T05:57:19.686Z,16.96
2023-10-13T06:00:05.123Z,17.00
2023-10-13T06:02:50.385Z,17.07
2023-10-13T06:05:36.262Z,17.14
2023-10-13T06:08:23.778Z,17.22
2023-10-13T06:11:08.946Z,17.28
2023-10-13T06:13:54.133Z,17.34
2023-10-13T06:16:39.438Z,17.41
2023-10-13T06:19:25.243Z,17.51
2023-10-13T06:22:13.158Z,17.52
2023-10-13T06:24:59.806Z,17.57
2023-10-13T06:27:45.540Z,17.61
2023-10-13T06:30:14.681Z,17.64
2023-10-13T06:32:42.878Z,17.69
2023-10-13T06:35:19.941Z,17.76
2023-10-13T06:37:48.882Z,17.78
2023-10-13T06:40:35.868Z,17.83
2023-10-13T06:43:18.032Z,17.89
2023-10-13T06:45:52.152Z,17.94
2023-10-13T06:48:21.157Z,17.96
2023-10-13T06:50:53.307Z,18.00
2023-10-13T06:53:21.471Z,18.08
2023-10-13T06:55:53.760Z,18.12
2023-10-13T06:58:25.194Z,18.14
2023-10-13T07:00:56.665Z,18.15
2023-10-13T07:03:26.132Z,18.19
2023-10-13T07:05:55.050Z,18.22
2023-10-13T07:08:23.076Z,18.23
2023-10-13T07:11:03.945Z,18.28
2023-10-13T07:13:32.073Z,18.32
2023-10-13T07:18:42.766Z,18.38
2023-10-13T07:21:11.744Z,18.42
2023-10-13T07:23:40.209Z,18.45
2023-10-13T07:26:09.932Z,18.52
2023-10-13T07:28:44.548Z,18.56
2023-10-13T07:31:15.709Z,18.63
2023-10-13T07:33:43.671Z,18.71
2023-10-13T07:36:29.100Z,18.77
2023-10-13T07:39:33.324Z,18.82
2023-10-13T07:42:09.335Z,18.90
2023-10-13T07:44:41.527Z,19.02
2023-10-13T07:47:11.905Z,19.04
2023-10-13T07:49:41.434Z,19.04
2023-10-13T07:52:30.568Z,19.03
2023-10-13T07:55:12.282Z,19.01
2023-10-13T07:57:55.625Z,19.09
2023-10-13T08:00:30.933Z,19.16
2023-10-13T08:03:10.104Z,19.24
2023-10-13T08:05:57.250Z,19.34
2023-10-13T08:08:26.940Z,19.43
2023-10-13T08:10:58.226Z,19.40
2023-10-13T08:13:27.718Z,19.48
2023-10-13T08:15:55.944Z,19.57
2023-10-13T08:18:31.541Z,19.64
2023-10-13T08:21:04.480Z,19.70
2023-10-13T08:23:57.010Z,19.76
2023-10-13T08:26:53.112Z,19.82
2023-10-13T08:29:39.668Z,19.76
2023-10-13T08:32:25.054Z,19.76
2023-10-13T08:35:11.005Z,19.78
2023-10-13T08:38:08.564Z,19.73
2023-10-13T08:41:12.530Z,19.81
2023-10-13T08:43:48.382Z,19.77
2023-10-13T08:46:30.567Z,19.80
2023-10-13T08:49:15.267Z,19.78
2023-10-13T08:51:50.321Z,19.70
2023-10-13T08:54:35.023Z,19.74
2023-10-13T08:57:18.509Z,19.78
2023-10-13T08:59:54.137Z,19.74
2023-10-13T09:02:44.791Z,19.76
2023-10-13T09:05:28.101Z,19.75
2023-10-13T09:08:09.156Z,19.84
2023-10-13T09:10:46.270Z,19.98
2023-10-13T09:13:20.154Z,20.14
2023-10-13T09:16:03.054Z,20.18
2023-10-13T09:18:47.500Z,20.21
2023-10-13T09:21:35.709Z,20.14
2023-10-13T09:26:58.255Z,20.25
2023-10-13T09:29:26.169Z,20.29
2023-10-13T09:32:05.752Z,20.32
2023-10-13T09:34:35.581Z,20.38
2023-10-13T09:37:05.755Z,20.39
2023-10-13T09:39:46.118Z,20.53
2023-10-13T09:42:19.172Z,20.64
2023-10-13T09:44:56.795Z,20.80
2023-10-13T09:47:33.747Z,20.86
2023-10-13T09:50:07.122Z,20.80
2023-10-13T09:52:38.726Z,21.06
2023-10-13T09:55:19.598Z,21.25
2023-10-13T09:57:59.217Z,21.37
2023-10-13T10:00:53.866Z,21.59
2023-10-13T10:03:42.038Z,21.54
2023-10-13T10:06:17.131Z,21.57
2023-10-13T10:08:52.246Z,21.79
2023-10-13T10:11:52.479Z,21.88
2023-10-13T10:14:31.984Z,22.06
2023-10-13T10:17:10.031Z,22.17
2023-10-13T10:19:56.254Z,22.49
2023-10-13T10:22:34.847Z,22.68
2023-10-13T10:25:04.034Z,22.68
2023-10-13T10:27:33.545Z,22.96
2023-10-13T10:30:04.936Z,22.54
2023-10-13T10:32:37.692Z,22.64
2023-10-13T10:35:08.958Z,22.58
2023-10-13T10:37:38.508Z,22.41
2023-10-13T10:40:09.970Z,22.45
2023-10-13T10:42:41.204Z,22.69
2023-10-13T10:45:13.046Z,22.70
2023-10-13T10:47:50.135Z,22.71
2023-10-13T10:50:35.921Z,22.65
2023-10-13T10:53:09.963Z,22.73
2023-10-13T10:55:38.601Z,22.79
2023-10-13T10:58:07.669Z,23.02
2023-10-13T11:00:47.535Z,23.01
2023-10-13T11:03:15.750Z,23.15
2023-10-13T11:05:47.705Z,23.12
2023-10-13T11:08:32.669Z,23.37
2023-10-13T11:11:02.321Z,23.46
2023-10-13T11:13:44.167Z,23.51
2023-10-13T11:16:24.986Z,23.58
2023-10-13T11:19:02.759Z,23.52
2023-10-13T11:21:32.806Z,23.53
2023-10-13T11:24:09.849Z,23.50
2023-10-13T11:26:44.240Z,23.59
2023-10-13T11:29:12.279Z,23.66
2023-10-13T11:31:42.905Z,23.91
2023-10-13T11:34:19.281Z,23.63
2023-10-13T11:36:47.441Z,23.68
2023-10-13T11:39:19.965Z,23.64
2023-10-13T11:41:55.043Z,23.72
2023-10-13T11:44:32.082Z,23.59
2023-10-13T11:47:33.860Z,23.60
2023-10-13T11:50:01.952Z,23.53
2023-10-13T11:52:31.201Z,23.58
2023-10-13T11:54:59.145Z,23.63
2023-10-13T11:57:27.485Z,23.63
2023-10-13T11:59:57.111Z,23.54
2023-10-13T12:02:44.261Z,23.53
2023-10-13T12:05:17.944Z,23.48
2023-10-13T12:07:50.451Z,23.45
2023-10-13T12:10:34.277Z,23.41
2023-10-13T12:13:06.789Z,23.76
2023-10-13T12:15:52.605Z,23.71
2023-10-13T12:18:24.187Z,23.81
2023-10-13T12:20:52.128Z,23.64
2023-10-13T12:23:21.895Z,23.52
2023-10-13T12:26:02.364Z,23.47
2023-10-13T12:28:32.534Z,23.55
2023-10-13T12:31:08.465Z,23.62
2023-10-13T12:33:41.857Z,23.78
2023-10-13T12:36:16.066Z,23.84
2023-10-13T12:39:13.685Z,23.70
2023-10-13T12:41:59.042Z,23.66
2023-10-13T12:44:44.841Z,23.57
2023-10-13T12:47:30.212Z,23.62
2023-10-13T12:50:15.349Z,23.57
2023-10-13T12:52:46.864Z,23.53
2023-10-13T12:55:20.209Z,23.64
2023-10-13T12:57:48.659Z,23.73
2023-10-13T13:00:24.081Z,23.73
2023-10-13T13:02:54.035Z,23.83
2023-10-13T13:05:29.614Z,23.84
2023-10-13T13:07:57.831Z,23.71
2023-10-13T13:10:36.293Z,23.71
2023-10-13T13:13:06.619Z,23.64
2023-10-13T13:15:34.792Z,23.67
2023-10-13T13:18:11.451Z,23.55
2023-10-13T13:20:45.125Z,23.51
2023-10-13T13:23:14.788Z,23.55
2023-10-13T13:25:44.664Z,23.62
2023-10-13T13:28:12.585Z,23.76
2023-10-13T13:30:40.661Z,23.84
2023-10-13T13:33:13.030Z,23.94
2023-10-13T13:35:44.133Z,24.04
2023-10-13T13:38:18.023Z,23.99
2023-10-13T13:40:50.545Z,23.92
2023-10-13T13:43:32.959Z,24.02
2023-10-13T13:46:03.488Z,23.91
2023-10-13T13:48:32.455Z,23.95
2023-10-13T13:51:07.192Z,24.09
2023-10-13T13:53:36.175Z,24.00
2023-10-13T13:56:04.619Z,24.02
2023-10-13T13:58:32.707Z,23.94
2023-10-13T14:01:12.828Z,23.77
2023-10-13T14:03:46.504Z,23.60
2023-10-13T14:06:19.685Z,23.49
2023-10-13T14:08:49.634Z,23.44
2023-10-13T14:11:44.248Z,23.28
2023-10-13T14:14:26.998Z,23.34
2023-10-13T14:17:03.511Z,23.18
2023-10-13T14:19:31.764Z,23.18
2023-10-13T14:22:07.254Z,23.19
2023-10-13T14:24:36.987Z,23.18
2023-10-13T14:27:10.547Z,23.12
2023-10-13T14:29:41.326Z,23.22
2023-10-13T14:32:13.707Z,23.08
2023-10-13T14:34:42.545Z,23.12
2023-10-13T14:37:13.808Z,23.10
2023-10-13T14:39:41.805Z,23.06
2023-10-13T14:42:09.896Z,23.03
2023-10-13T14:44:38.450Z,23.03
2023-10-13T14:47:09.948Z,23.03
2023-10-13T14:49:38.411Z,22.98
2023-10-13T14:52:06.751Z,22.98
2023-10-13T14:54:36.114Z,22.98
2023-10-13T14:57:04.663Z,22.91
2023-10-13T14:59:34.500Z,22.90
2023-10-13T15:02:04.112Z,22.87
2023-10-13T15:04:34.372Z,22.78
2023-10-13T15:07:04.116Z,22.78
2023-10-13T15:09:32.510Z,22.74
2023-10-13T15:12:06.576Z,22.80
2023-10-13T15:14:38.070Z,22.79
2023-10-13T15:17:07.388Z,22.71
2023-10-13T15:19:37.267Z,22.69
2023-10-13T15:22:07.258Z,22.65
2023-10-13T15:24:42.809Z,22.65
2023-10-13T15:27:12.251Z,22.56
2023-10-13T15:29:40.335Z,22.58
2023-10-13T15:32:22.294Z,22.63
2023-10-13T15:34:50.246Z,22.57
2023-10-13T15:37:18.293Z,22.60
2023-10-13T15:39:46.196Z,22.52
2023-10-13T15:42:15.795Z,22.54
2023-10-13T15:44:44.807Z,22.48
2023-10-13T15:49:44.583Z,22.43
2023-10-13T15:52:12.596Z,22.37
2023-10-13T15:54:42.008Z,22.36
2023-10-13T15:57:17.360Z,22.40
2023-10-13T15:59:47.696Z,22.36
2023-10-13T16:02:18.290Z,22.39
2023-10-13T16:04:46.754Z,22.38
2023-10-13T16:07:14.823Z,22.37
2023-10-13T16:09:42.810Z,22.32
2023-10-13T16:12:12.077Z,22.27
2023-10-13T16:14:41.260Z,22.26
2023-10-13T16:17:10.966Z,22.20
2023-10-13T16:19:38.902Z,22.20
2023-10-13T16:22:08.398Z,22.19
2023-10-13T16:24:36.661Z,22.17
2023-10-13T16:27:04.793Z,22.13
2023-10-13T16:29:33.279Z,22.11
2023-10-13T16:32:01.597Z,22.11
2023-10-13T16:34:30.968Z,22.09
2023-10-13T16:36:59.025Z,22.02
2023-10-13T16:39:29.498Z,21.98
2023-10-13T16:41:57.461Z,21.99
2023-10-13T16:44:26.920Z,21.95
2023-10-13T16:46:58.037Z,21.88
2023-10-13T16:49:26.467Z,21.88
2023-10-13T16:51:55.849Z,21.90
2023-10-13T16:54:24.251Z,21.85
2023-10-13T16:56:56.678Z,21.83
2023-10-13T16:59:27.572Z,21.83
2023-10-13T17:01:56.121Z,21.75
2023-10-13T17:04:28.202Z,21.76
2023-10-13T17:06:58.365Z,21.65
2023-10-13T17:09:26.697Z,21.65
2023-10-13T17:11:54.644Z,21.62
2023-10-13T17:14:22.816Z,21.52
2023-10-13T17:16:51.279Z,21.49
2023-10-13T17:19:20.810Z,21.47
2023-10-13T17:21:50.101Z,21.51
2023-10-13T17:24:21.007Z,21.50
2023-10-13T17:26:51.038Z,21.48
2023-10-13T17:29:23.845Z,21.51
2023-10-13T17:31:51.949Z,21.49
2023-10-13T17:34:20.190Z,21.47
2023-10-13T17:36:50.084Z,21.47
2023-10-13T17:39:20.364Z,21.48
2023-10-13T17:41:49.461Z,21.44
2023-10-13T17:44:18.146Z,21.44
2023-10-13T17:46:46.440Z,21.42
2023-10-13T17:49:14.499Z,21.43
2023-10-13T17:51:44.433Z,21.40
2023-10-13T17:54:13.309Z,21.34
2023-10-13T17:56:43.144Z,21.32
2023-10-13T17:59:13.572Z,21.35
2023-10-13T18:01:41.823Z,21.34
2023-10-13T18:04:13.125Z,21.33
2023-10-13T18:06:43.754Z,21.30
2023-10-13T18:09:13.192Z,21.32
2023-10-13T18:11:43.917Z,21.33
2023-10-13T18:14:12.901Z,21.26
2023-10-13T18:16:42.587Z,21.28
2023-10-13T18:19:10.888Z,21.24
2023-10-13T18:21:39.452Z,21.25
2023-10-13T18:24:09.410Z,21.23
2023-10-13T18:26:37.884Z,21.21
2023-10-13T18:29:10.220Z,21.15
2023-10-13T18:31:38.019Z,21.03
2023-10-13T18:34:06.705Z,21.03
2023-10-13T18:36:34.660Z,21.02
2023-10-13T18:39:08.153Z,21.00
2023-10-13T18:41:37.381Z,20.98
2023-10-13T18:44:10.504Z,20.84
2023-10-13T18:46:38.808Z,20.76
2023-10-13T18:49:07.055Z,20.78
2023-10-13T18:51:35.027Z,20.78
2023-10-13T18:54:03.760Z,20.83
2023-10-13T18:56:33.859Z,20.76
2023-10-13T18:59:03.534Z,20.70
2023-10-13T19:01:35.700Z,20.68
2023-10-13T19:04:05.880Z,20.60
2023-10-13T19:06:35.679Z,20.65
2023-10-13T19:09:06.147Z,20.59
2023-10-13T19:11:36.289Z,20.64
2023-10-13T19:14:05.878Z,20.66
2023-10-13T19:16:37.006Z,20.62
2023-10-13T19:19:05.646Z,20.64
2023-10-13T19:21:37.359Z,20.61
2023-10-13T19:24:07.261Z,20.52
2023-10-13T19:26:37.442Z,20.39
2023-10-13T19:29:06.729Z,20.24
2023-10-13T19:31:36.748Z,20.30
2023-10-13T19:34:06.506Z,20.28
2023-10-13T19:36:35.913Z,20.30
2023-10-13T19:39:08.895Z,20.32
2023-10-13T19:41:38.405Z,20.35
2023-10-13T19:44:07.169Z,20.45
2023-10-13T19:46:37.633Z,20.46
2023-10-13T19:49:06.728Z,20.59
2023-10-13T19:51:35.162Z,20.79
2023-10-13T19:54:04.918Z,20.93
2023-10-13T19:56:34.470Z,21.08
2023-10-13T19:59:03.479Z,21.10
2023-10-13T20:01:34.950Z,21.22
2023-10-13T20:04:08.699Z,21.23
2023-10-13T20:06:37.424Z,21.30
2023-10-13T20:09:19.959Z,21.38
2023-10-13T20:11:48.358Z,21.54
2023-10-13T20:14:16.397Z,21.83
2023-10-13T20:16:45.591Z,21.83
2023-10-13T20:19:17.663Z,21.86
2023-10-13T20:21:46.439Z,21.89
2023-10-13T20:24:16.438Z,21.85
2023-10-13T20:26:44.897Z,21.83
2023-10-13T20:29:17.100Z,21.82
2023-10-13T20:31:48.446Z,21.76
2023-10-13T20:34:20.990Z,21.68
2023-10-13T20:36:49.393Z,21.81
2023-10-13T20:39:25.221Z,21.69
2023-10-13T20:41:53.963Z,21.69
2023-10-13T20:44:27.715Z,21.73
2023-10-13T20:46:57.990Z,21.67
2023-10-13T20:49:29.351Z,21.60
2023-10-13T20:51:57.409Z,21.61
2023-10-13T20:54:25.335Z,21.68
2023-10-13T20:56:55.708Z,21.60
2023-10-13T21:01:51.684Z,21.58
2023-10-13T21:04:19.777Z,21.56
2023-10-13T21:06:50.796Z,21.64
2023-10-13T21:09:22.394Z,21.57
2023-10-13T21:11:50.645Z,21.63
2023-10-13T21:14:18.879Z,21.69
2023-10-13T21:16:47.323Z,21.64
2023-10-13T21:19:16.434Z,21.73
2023-10-13T21:21:44.463Z,21.68
2023-10-13T21:24:13.789Z,21.57
2023-10-13T21:26:42.007Z,21.52
2023-10-13T21:29:10.021Z,21.56
2023-10-13T21:31:38.670Z,21.42
2023-10-13T21:34:08.293Z,21.40
2023-10-13T21:36:39.628Z,21.36
2023-10-13T21:39:11.972Z,21.32
2023-10-13T21:41:42.340Z,21.15
2023-10-13T21:44:10.375Z,20.99
2023-10-13T21:46:39.057Z,20.88
2023-10-13T21:49:07.324Z,20.85
2023-10-13T21:51:36.760Z,20.77
2023-10-13T21:54:08.572Z,20.70
2023-10-13T21:56:36.898Z,20.67
2023-10-13T21:59:11.629Z,20.54
2023-10-13T22:01:40.699Z,20.42
2023-10-13T22:04:12.296Z,20.18
2023-10-13T22:06:42.573Z,20.04
2023-10-13T22:09:11.402Z,19.90
2023-10-13T22:11:41.088Z,19.72
2023-10-13T22:14:13.853Z,19.64
2023-10-13T22:16:42.317Z,19.51
2023-10-13T22:19:10.328Z,19.48
2023-10-13T22:21:38.570Z,19.40
2023-10-13T22:24:07.308Z,19.27
2023-10-13T22:26:35.456Z,19.18
2023-10-13T22:29:06.256Z,19.19
2023-10-13T22:31:35.850Z,19.20
2023-10-13T22:34:05.853Z,19.21
2023-10-13T22:36:34.217Z,19.19
2023-10-13T22:39:02.211Z,19.23
2023-10-13T22:41:34.532Z,19.16
2023-10-13T22:44:06.455Z,19.14
2023-10-13T22:46:35.927Z,19.16
2023-10-13T22:49:03.859Z,19.18
2023-10-13T22:51:32.259Z,19.19
2023-10-13T22:54:00.547Z,19.26
2023-10-13T22:56:29.455Z,19.29
2023-10-13T22:58:57.396Z,19.30
2023-10-13T23:01:25.356Z,19.32
2023-10-13T23:03:58.389Z,19.37
2023-10-13T23:06:31.860Z,19.30
2023-10-13T23:09:09.908Z,19.34
2023-10-13T23:11:39.970Z,19.36
2023-10-13T23:14:13.128Z,19.44
2023-10-13T23:16:41.675Z,19.47
2023-10-13T23:19:11.204Z,19.49
2023-10-13T23:21:40.224Z,19.50
2023-10-13T23:24:11.024Z,19.54
2023-10-13T23:26:39.932Z,19.52
2023-10-13T23:29:11.051Z,19.52
2023-10-13T23:31:39.989Z,19.52
2023-10-13T23:34:08.154Z,19.48
2023-10-13T23:36:39.639Z,19.43
2023-10-13T23:39:20.302Z,19.45
2023-10-13T23:41:48.200Z,19.44
2023-10-13T23:44:16.239Z,19.41
2023-10-13T23:46:45.834Z,19.41
2023-10-13T23:49:19.115Z,19.34
2023-10-13T23:51:55.056Z,19.36
2023-10-13T23:54:23.433Z,19.40
2023-10-13T23:56:52.875Z,19.35
2023-10-13T23:59:28.078Z,19.34
